sensor_id;sensor_type;location;lat;lon;timestamp;P1;durP1;ratioP1;P2;durP2;ratioP2
40707;SDS011;26392;42.696;23.350;2023-03-19T00:01:17;23.38;;;8.55;;
40707;SDS011;26392;42.696;23.350;2023-03-19T00:03:42;30.05;;;10.45;;
40707;SDS011;26392;42.696;23.350;2023-03-19T00:06:08;23.92;;;9.68;;
40707;SDS011;26392;42.696;23.350;2023-03-19T00:08:33;22.10;;;9.82;;
40707;SDS011;26392;42.696;23.350;2023-03-19T00:11:04;24.20;;;9.18;;
40707;SDS011;26392;42.696;23.350;2023-03-19T00:13:30;32.97;;;10.90;;
40707;SDS011;26392;42.696;23.350;2023-03-19T00:15:56;26.52;;;9.80;;
40707;SDS011;26392;42.696;23.350;2023-03-19T00:18:21;25.98;;;10.10;;
40707;SDS011;26392;42.696;23.350;2023-03-19T00:20:46;25.23;;;9.82;;
40707;SDS011;26392;42.696;23.350;2023-03-19T00:23:12;27.65;;;11.43;;
40707;SDS011;26392;42.696;23.350;2023-03-19T00:25:37;29.58;;;11.95;;
40707;SDS011;26392;42.696;23.350;2023-03-19T00:28:03;24.45;;;11.85;;
40707;SDS011;26392;42.696;23.350;2023-03-19T00:30:28;28.40;;;12.20;;
40707;SDS011;26392;42.696;23.350;2023-03-19T00:32:53;26.17;;;11.07;;
40707;SDS011;26392;42.696;23.350;2023-03-19T00:35:19;31.20;;;11.43;;
40707;SDS011;26392;42.696;23.350;2023-03-19T00:37:44;31.08;;;12.30;;
40707;SDS011;26392;42.696;23.350;2023-03-19T00:40:10;25.35;;;11.40;;
40707;SDS011;26392;42.696;23.350;2023-03-19T00:42:35;24.00;;;12.07;;
40707;SDS011;26392;42.696;23.350;2023-03-19T00:45:01;29.63;;;13.50;;
40707;SDS011;26392;42.696;23.350;2023-03-19T00:47:27;36.70;;;13.38;;
40707;SDS011;26392;42.696;23.350;2023-03-19T00:49:53;29.00;;;13.02;;
40707;SDS011;26392;42.696;23.350;2023-03-19T00:52:18;29.15;;;12.63;;
40707;SDS011;26392;42.696;23.350;2023-03-19T00:54:44;38.03;;;14.23;;
40707;SDS011;26392;42.696;23.350;2023-03-19T00:57:09;50.38;;;19.63;;
40707;SDS011;26392;42.696;23.350;2023-03-19T00:59:35;33.05;;;14.63;;
40707;SDS011;26392;42.696;23.350;2023-03-19T01:02:00;38.60;;;16.35;;
40707;SDS011;26392;42.696;23.350;2023-03-19T01:04:26;31.40;;;13.52;;
40707;SDS011;26392;42.696;23.350;2023-03-19T01:06:52;36.53;;;14.45;;
40707;SDS011;26392;42.696;23.350;2023-03-19T01:09:17;41.47;;;17.33;;
40707;SDS011;26392;42.696;23.350;2023-03-19T01:11:42;39.03;;;15.15;;
40707;SDS011;26392;42.696;23.350;2023-03-19T01:14:08;35.10;;;15.52;;
40707;SDS011;26392;42.696;23.350;2023-03-19T01:16:33;39.95;;;15.13;;
40707;SDS011;26392;42.696;23.350;2023-03-19T01:19:00;39.38;;;15.75;;
40707;SDS011;26392;42.696;23.350;2023-03-19T01:21:25;47.70;;;17.42;;
40707;SDS011;26392;42.696;23.350;2023-03-19T01:23:54;61.85;;;23.25;;
40707;SDS011;26392;42.696;23.350;2023-03-19T01:26:21;61.40;;;20.40;;
40707;SDS011;26392;42.696;23.350;2023-03-19T01:28:47;49.63;;;18.30;;
40707;SDS011;26392;42.696;23.350;2023-03-19T01:31:12;46.47;;;17.58;;
40707;SDS011;26392;42.696;23.350;2023-03-19T01:33:38;56.35;;;19.10;;
40707;SDS011;26392;42.696;23.350;2023-03-19T01:36:03;43.95;;;17.52;;
40707;SDS011;26392;42.696;23.350;2023-03-19T01:38:29;47.35;;;18.92;;
40707;SDS011;26392;42.696;23.350;2023-03-19T01:40:56;37.58;;;15.45;;
40707;SDS011;26392;42.696;23.350;2023-03-19T01:43:22;44.22;;;16.52;;
40707;SDS011;26392;42.696;23.350;2023-03-19T01:45:50;37.40;;;16.50;;
40707;SDS011;26392;42.696;23.350;2023-03-19T01:48:40;48.67;;;17.95;;
40707;SDS011;26392;42.696;23.350;2023-03-19T01:51:08;51.42;;;19.30;;
40707;SDS011;26392;42.696;23.350;2023-03-19T01:53:35;44.65;;;18.75;;
40707;SDS011;26392;42.696;23.350;2023-03-19T01:56:50;47.60;;;20.02;;
40707;SDS011;26392;42.696;23.350;2023-03-19T01:59:05;55.97;;;20.55;;
40707;SDS011;26392;42.696;23.350;2023-03-19T02:01:35;46.20;;;18.55;;
40707;SDS011;26392;42.696;23.350;2023-03-19T02:04:07;42.65;;;18.70;;
40707;SDS011;26392;42.696;23.350;2023-03-19T02:06:33;48.47;;;19.08;;
40707;SDS011;26392;42.696;23.350;2023-03-19T02:09:00;44.03;;;17.63;;
40707;SDS011;26392;42.696;23.350;2023-03-19T02:11:26;46.60;;;18.50;;
40707;SDS011;26392;42.696;23.350;2023-03-19T02:13:52;34.80;;;13.07;;
40707;SDS011;26392;42.696;23.350;2023-03-19T02:16:20;24.98;;;11.85;;
40707;SDS011;26392;42.696;23.350;2023-03-19T02:18:46;36.72;;;13.82;;
40707;SDS011;26392;42.696;23.350;2023-03-19T02:21:13;24.10;;;12.07;;
40707;SDS011;26392;42.696;23.350;2023-03-19T02:23:46;29.40;;;11.43;;
40707;SDS011;26392;42.696;23.350;2023-03-19T02:26:14;26.83;;;10.60;;
40707;SDS011;26392;42.696;23.350;2023-03-19T02:28:43;23.92;;;9.18;;
40707;SDS011;26392;42.696;23.350;2023-03-19T02:31:11;27.80;;;11.38;;
40707;SDS011;26392;42.696;23.350;2023-03-19T02:33:38;35.55;;;11.40;;
40707;SDS011;26392;42.696;23.350;2023-03-19T02:36:04;24.83;;;10.40;;
40707;SDS011;26392;42.696;23.350;2023-03-19T02:38:32;25.88;;;9.43;;
40707;SDS011;26392;42.696;23.350;2023-03-19T02:41:00;25.55;;;9.18;;
40707;SDS011;26392;42.696;23.350;2023-03-19T02:43:29;26.55;;;8.93;;
40707;SDS011;26392;42.696;23.350;2023-03-19T02:45:55;25.33;;;9.05;;
40707;SDS011;26392;42.696;23.350;2023-03-19T02:48:21;22.73;;;9.55;;
40707;SDS011;26392;42.696;23.350;2023-03-19T02:50:47;25.75;;;10.75;;
40707;SDS011;26392;42.696;23.350;2023-03-19T02:53:12;31.92;;;11.55;;
40707;SDS011;26392;42.696;23.350;2023-03-19T02:55:39;45.33;;;14.85;;
40707;SDS011;26392;42.696;23.350;2023-03-19T02:58:05;35.80;;;13.95;;
40707;SDS011;26392;42.696;23.350;2023-03-19T03:00:31;35.13;;;12.38;;
40707;SDS011;26392;42.696;23.350;2023-03-19T03:02:56;32.10;;;12.07;;
40707;SDS011;26392;42.696;23.350;2023-03-19T03:05:22;28.10;;;10.35;;
40707;SDS011;26392;42.696;23.350;2023-03-19T03:07:48;25.35;;;9.60;;
40707;SDS011;26392;42.696;23.350;2023-03-19T03:10:13;26.23;;;9.82;;
40707;SDS011;26392;42.696;23.350;2023-03-19T03:12:39;26.30;;;10.10;;
40707;SDS011;26392;42.696;23.350;2023-03-19T03:15:06;26.65;;;9.10;;
40707;SDS011;26392;42.696;23.350;2023-03-19T03:17:32;19.60;;;9.20;;
40707;SDS011;26392;42.696;23.350;2023-03-19T03:20:02;23.50;;;9.73;;
40707;SDS011;26392;42.696;23.350;2023-03-19T03:22:28;23.92;;;9.77;;
40707;SDS011;26392;42.696;23.350;2023-03-19T03:24:54;23.92;;;10.50;;
40707;SDS011;26392;42.696;23.350;2023-03-19T03:27:20;24.40;;;10.63;;
40707;SDS011;26392;42.696;23.350;2023-03-19T03:29:45;27.17;;;10.07;;
40707;SDS011;26392;42.696;23.350;2023-03-19T03:32:11;28.50;;;10.40;;
40707;SDS011;26392;42.696;23.350;2023-03-19T03:34:36;26.58;;;10.82;;
40707;SDS011;26392;42.696;23.350;2023-03-19T03:37:02;26.88;;;12.13;;
40707;SDS011;26392;42.696;23.350;2023-03-19T03:39:27;23.52;;;11.23;;
40707;SDS011;26392;42.696;23.350;2023-03-19T03:41:52;27.92;;;12.02;;
40707;SDS011;26392;42.696;23.350;2023-03-19T03:44:18;31.67;;;13.63;;
40707;SDS011;26392;42.696;23.350;2023-03-19T03:46:43;34.10;;;14.98;;
40707;SDS011;26392;42.696;23.350;2023-03-19T03:49:09;37.70;;;14.82;;
40707;SDS011;26392;42.696;23.350;2023-03-19T03:51:34;33.08;;;14.40;;
40707;SDS011;26392;42.696;23.350;2023-03-19T03:54:00;32.17;;;15.45;;
40707;SDS011;26392;42.696;23.350;2023-03-19T03:56:25;35.70;;;14.73;;
40707;SDS011;26392;42.696;23.350;2023-03-19T03:58:51;29.85;;;14.55;;
40707;SDS011;26392;42.696;23.350;2023-03-19T04:01:17;32.03;;;15.25;;
40707;SDS011;26392;42.696;23.350;2023-03-19T04:03:43;34.00;;;14.75;;
40707;SDS011;26392;42.696;23.350;2023-03-19T04:06:13;32.53;;;14.38;;
40707;SDS011;26392;42.696;23.350;2023-03-19T04:08:41;31.00;;;13.80;;
40707;SDS011;26392;42.696;23.350;2023-03-19T04:11:06;33.00;;;14.55;;
40707;SDS011;26392;42.696;23.350;2023-03-19T04:13:32;30.60;;;15.02;;
40707;SDS011;26392;42.696;23.350;2023-03-19T04:16:01;31.92;;;14.90;;
40707;SDS011;26392;42.696;23.350;2023-03-19T04:18:30;32.58;;;14.25;;
40707;SDS011;26392;42.696;23.350;2023-03-19T04:20:56;30.98;;;13.95;;
40707;SDS011;26392;42.696;23.350;2023-03-19T04:23:22;28.15;;;12.27;;
40707;SDS011;26392;42.696;23.350;2023-03-19T04:25:48;26.10;;;13.02;;
40707;SDS011;26392;42.696;23.350;2023-03-19T04:28:14;21.05;;;11.82;;
40707;SDS011;26392;42.696;23.350;2023-03-19T04:30:40;22.00;;;10.00;;
40707;SDS011;26392;42.696;23.350;2023-03-19T04:33:07;20.50;;;10.18;;
40707;SDS011;26392;42.696;23.350;2023-03-19T04:35:33;30.90;;;12.75;;
40707;SDS011;26392;42.696;23.350;2023-03-19T04:37:58;31.45;;;12.27;;
40707;SDS011;26392;42.696;23.350;2023-03-19T04:40:24;30.80;;;12.90;;
40707;SDS011;26392;42.696;23.350;2023-03-19T04:42:49;28.27;;;12.75;;
40707;SDS011;26392;42.696;23.350;2023-03-19T04:45:15;30.98;;;13.95;;
40707;SDS011;26392;42.696;23.350;2023-03-19T04:47:40;26.17;;;12.18;;
40707;SDS011;26392;42.696;23.350;2023-03-19T04:50:06;36.78;;;16.45;;
40707;SDS011;26392;42.696;23.350;2023-03-19T04:52:33;43.10;;;19.70;;
40707;SDS011;26392;42.696;23.350;2023-03-19T04:54:59;52.10;;;24.75;;
40707;SDS011;26392;42.696;23.350;2023-03-19T04:57:24;48.17;;;23.33;;
40707;SDS011;26392;42.696;23.350;2023-03-19T04:59:49;51.08;;;23.50;;
40707;SDS011;26392;42.696;23.350;2023-03-19T05:02:15;69.07;;;30.13;;
40707;SDS011;26392;42.696;23.350;2023-03-19T05:04:41;71.22;;;29.95;;
40707;SDS011;26392;42.696;23.350;2023-03-19T05:07:06;75.38;;;32.03;;
40707;SDS011;26392;42.696;23.350;2023-03-19T05:09:32;79.50;;;32.33;;
40707;SDS011;26392;42.696;23.350;2023-03-19T05:11:57;74.22;;;30.80;;
40707;SDS011;26392;42.696;23.350;2023-03-19T05:14:23;81.68;;;33.70;;
40707;SDS011;26392;42.696;23.350;2023-03-19T05:16:49;84.60;;;32.92;;
40707;SDS011;26392;42.696;23.350;2023-03-19T05:19:14;84.53;;;32.00;;
40707;SDS011;26392;42.696;23.350;2023-03-19T05:21:40;80.47;;;31.35;;
40707;SDS011;26392;42.696;23.350;2023-03-19T05:24:05;65.22;;;29.83;;
40707;SDS011;26392;42.696;23.350;2023-03-19T05:26:31;72.57;;;27.55;;
40707;SDS011;26392;42.696;23.350;2023-03-19T05:28:56;77.85;;;29.35;;
40707;SDS011;26392;42.696;23.350;2023-03-19T05:31:22;71.65;;;28.65;;
40707;SDS011;26392;42.696;23.350;2023-03-19T05:33:47;61.20;;;26.88;;
40707;SDS011;26392;42.696;23.350;2023-03-19T05:36:13;91.90;;;29.45;;
40707;SDS011;26392;42.696;23.350;2023-03-19T05:38:39;82.38;;;33.53;;
40707;SDS011;26392;42.696;23.350;2023-03-19T05:41:05;76.18;;;31.80;;
40707;SDS011;26392;42.696;23.350;2023-03-19T05:43:31;71.78;;;29.45;;
40707;SDS011;26392;42.696;23.350;2023-03-19T05:45:57;63.80;;;26.42;;
40707;SDS011;26392;42.696;23.350;2023-03-19T05:48:23;56.20;;;25.50;;
40707;SDS011;26392;42.696;23.350;2023-03-19T05:50:48;45.22;;;20.75;;
40707;SDS011;26392;42.696;23.350;2023-03-19T05:53:14;40.08;;;18.23;;
40707;SDS011;26392;42.696;23.350;2023-03-19T05:55:40;35.85;;;16.70;;
40707;SDS011;26392;42.696;23.350;2023-03-19T05:58:05;39.28;;;15.25;;
40707;SDS011;26392;42.696;23.350;2023-03-19T06:00:31;26.92;;;13.02;;
40707;SDS011;26392;42.696;23.350;2023-03-19T06:02:57;24.73;;;11.52;;
40707;SDS011;26392;42.696;23.350;2023-03-19T06:05:23;23.92;;;10.95;;
40707;SDS011;26392;42.696;23.350;2023-03-19T06:07:48;24.13;;;11.07;;
40707;SDS011;26392;42.696;23.350;2023-03-19T06:10:14;24.88;;;10.25;;
40707;SDS011;26392;42.696;23.350;2023-03-19T06:12:39;23.58;;;10.57;;
40707;SDS011;26392;42.696;23.350;2023-03-19T06:15:06;24.02;;;11.10;;
40707;SDS011;26392;42.696;23.350;2023-03-19T06:17:33;27.70;;;11.25;;
40707;SDS011;26392;42.696;23.350;2023-03-19T06:19:58;25.25;;;10.77;;
40707;SDS011;26392;42.696;23.350;2023-03-19T06:22:27;28.05;;;11.57;;
40707;SDS011;26392;42.696;23.350;2023-03-19T06:24:52;28.83;;;10.57;;
40707;SDS011;26392;42.696;23.350;2023-03-19T06:27:18;20.88;;;9.82;;
40707;SDS011;26392;42.696;23.350;2023-03-19T06:29:43;19.40;;;10.25;;
40707;SDS011;26392;42.696;23.350;2023-03-19T06:32:09;26.75;;;10.85;;
40707;SDS011;26392;42.696;23.350;2023-03-19T06:34:34;20.73;;;10.10;;
40707;SDS011;26392;42.696;23.350;2023-03-19T06:37:00;20.60;;;10.90;;
40707;SDS011;26392;42.696;23.350;2023-03-19T06:39:26;22.60;;;10.05;;
40707;SDS011;26392;42.696;23.350;2023-03-19T06:41:51;32.33;;;10.38;;
40707;SDS011;26392;42.696;23.350;2023-03-19T06:44:17;26.48;;;9.65;;
40707;SDS011;26392;42.696;23.350;2023-03-19T06:46:43;25.27;;;9.75;;
40707;SDS011;26392;42.696;23.350;2023-03-19T06:49:08;20.20;;;9.30;;
40707;SDS011;26392;42.696;23.350;2023-03-19T06:51:34;21.40;;;10.27;;
40707;SDS011;26392;42.696;23.350;2023-03-19T06:54:00;20.38;;;10.07;;
40707;SDS011;26392;42.696;23.350;2023-03-19T06:56:25;25.60;;;11.43;;
40707;SDS011;26392;42.696;23.350;2023-03-19T06:58:51;21.58;;;10.40;;
40707;SDS011;26392;42.696;23.350;2023-03-19T07:01:16;22.25;;;10.35;;
40707;SDS011;26392;42.696;23.350;2023-03-19T07:03:43;22.83;;;10.63;;
40707;SDS011;26392;42.696;23.350;2023-03-19T07:06:10;18.58;;;9.40;;
40707;SDS011;26392;42.696;23.350;2023-03-19T07:08:36;19.35;;;10.25;;
40707;SDS011;26392;42.696;23.350;2023-03-19T07:11:02;22.48;;;10.80;;
40707;SDS011;26392;42.696;23.350;2023-03-19T07:13:31;21.08;;;10.52;;
40707;SDS011;26392;42.696;23.350;2023-03-19T07:15:57;23.85;;;10.15;;
40707;SDS011;26392;42.696;23.350;2023-03-19T07:18:24;23.85;;;11.00;;
40707;SDS011;26392;42.696;23.350;2023-03-19T07:20:50;25.95;;;10.02;;
40707;SDS011;26392;42.696;23.350;2023-03-19T07:23:17;19.95;;;9.70;;
40707;SDS011;26392;42.696;23.350;2023-03-19T07:25:42;20.65;;;9.25;;
40707;SDS011;26392;42.696;23.350;2023-03-19T07:28:08;19.25;;;9.60;;
40707;SDS011;26392;42.696;23.350;2023-03-19T07:30:34;16.55;;;9.52;;
40707;SDS011;26392;42.696;23.350;2023-03-19T07:33:00;19.73;;;9.35;;
40707;SDS011;26392;42.696;23.350;2023-03-19T07:35:25;22.17;;;9.20;;
40707;SDS011;26392;42.696;23.350;2023-03-19T07:37:51;24.77;;;9.10;;
40707;SDS011;26392;42.696;23.350;2023-03-19T07:40:16;17.98;;;9.45;;
40707;SDS011;26392;42.696;23.350;2023-03-19T07:42:42;20.33;;;8.65;;
40707;SDS011;26392;42.696;23.350;2023-03-19T07:45:07;27.15;;;8.77;;
40707;SDS011;26392;42.696;23.350;2023-03-19T07:47:35;20.25;;;9.38;;
40707;SDS011;26392;42.696;23.350;2023-03-19T07:50:01;18.73;;;9.27;;
40707;SDS011;26392;42.696;23.350;2023-03-19T07:52:27;17.98;;;8.82;;
40707;SDS011;26392;42.696;23.350;2023-03-19T07:54:53;20.60;;;9.73;;
40707;SDS011;26392;42.696;23.350;2023-03-19T07:57:19;24.90;;;9.95;;
40707;SDS011;26392;42.696;23.350;2023-03-19T07:59:45;15.63;;;8.85;;
40707;SDS011;26392;42.696;23.350;2023-03-19T08:02:10;18.40;;;8.25;;
40707;SDS011;26392;42.696;23.350;2023-03-19T08:04:36;15.55;;;8.48;;
40707;SDS011;26392;42.696;23.350;2023-03-19T08:07:02;16.58;;;7.65;;
40707;SDS011;26392;42.696;23.350;2023-03-19T08:09:28;22.08;;;7.45;;
40707;SDS011;26392;42.696;23.350;2023-03-19T08:11:53;18.58;;;7.85;;
40707;SDS011;26392;42.696;23.350;2023-03-19T08:14:18;17.92;;;7.18;;
40707;SDS011;26392;42.696;23.350;2023-03-19T08:16:46;13.90;;;7.10;;
40707;SDS011;26392;42.696;23.350;2023-03-19T08:19:12;16.35;;;6.97;;
40707;SDS011;26392;42.696;23.350;2023-03-19T08:21:38;18.30;;;7.38;;
40707;SDS011;26392;42.696;23.350;2023-03-19T08:24:04;15.77;;;6.80;;
40707;SDS011;26392;42.696;23.350;2023-03-19T08:26:30;10.40;;;5.30;;
40707;SDS011;26392;42.696;23.350;2023-03-19T08:28:57;17.80;;;7.47;;
40707;SDS011;26392;42.696;23.350;2023-03-19T08:31:22;15.25;;;6.32;;
40707;SDS011;26392;42.696;23.350;2023-03-19T08:33:49;13.07;;;6.75;;
40707;SDS011;26392;42.696;23.350;2023-03-19T08:36:15;16.98;;;7.22;;
40707;SDS011;26392;42.696;23.350;2023-03-19T08:38:41;15.35;;;7.93;;
40707;SDS011;26392;42.696;23.350;2023-03-19T08:41:07;13.40;;;7.63;;
40707;SDS011;26392;42.696;23.350;2023-03-19T08:43:33;14.65;;;6.95;;
40707;SDS011;26392;42.696;23.350;2023-03-19T08:46:00;15.07;;;7.72;;
40707;SDS011;26392;42.696;23.350;2023-03-19T08:48:27;18.90;;;8.02;;
40707;SDS011;26392;42.696;23.350;2023-03-19T08:50:56;19.77;;;7.72;;
40707;SDS011;26392;42.696;23.350;2023-03-19T08:53:23;21.17;;;8.07;;
40707;SDS011;26392;42.696;23.350;2023-03-19T08:55:52;15.40;;;7.55;;
40707;SDS011;26392;42.696;23.350;2023-03-19T08:58:19;10.93;;;7.05;;
40707;SDS011;26392;42.696;23.350;2023-03-19T09:00:45;15.65;;;7.13;;
40707;SDS011;26392;42.696;23.350;2023-03-19T09:03:11;12.80;;;7.10;;
40707;SDS011;26392;42.696;23.350;2023-03-19T09:05:36;19.98;;;8.10;;
40707;SDS011;26392;42.696;23.350;2023-03-19T09:08:02;17.13;;;7.78;;
40707;SDS011;26392;42.696;23.350;2023-03-19T09:10:27;18.20;;;8.20;;
40707;SDS011;26392;42.696;23.350;2023-03-19T09:12:53;17.92;;;9.43;;
40707;SDS011;26392;42.696;23.350;2023-03-19T09:15:18;16.85;;;8.07;;
40707;SDS011;26392;42.696;23.350;2023-03-19T09:17:44;16.35;;;7.03;;
40707;SDS011;26392;42.696;23.350;2023-03-19T09:20:09;14.38;;;6.65;;
40707;SDS011;26392;42.696;23.350;2023-03-19T09:22:35;11.88;;;6.85;;
40707;SDS011;26392;42.696;23.350;2023-03-19T09:25:00;11.20;;;6.57;;
40707;SDS011;26392;42.696;23.350;2023-03-19T09:27:26;12.60;;;6.78;;
40707;SDS011;26392;42.696;23.350;2023-03-19T09:29:52;10.77;;;5.15;;
40707;SDS011;26392;42.696;23.350;2023-03-19T09:32:18;12.10;;;4.70;;
40707;SDS011;26392;42.696;23.350;2023-03-19T09:34:43;14.75;;;6.47;;
40707;SDS011;26392;42.696;23.350;2023-03-19T09:37:09;12.50;;;6.00;;
40707;SDS011;26392;42.696;23.350;2023-03-19T09:39:35;11.80;;;6.53;;
40707;SDS011;26392;42.696;23.350;2023-03-19T09:44:36;12.07;;;6.75;;
40707;SDS011;26392;42.696;23.350;2023-03-19T09:47:12;13.55;;;7.28;;
40707;SDS011;26392;42.696;23.350;2023-03-19T09:49:59;13.38;;;7.18;;
40707;SDS011;26392;42.696;23.350;2023-03-19T09:52:48;12.30;;;6.57;;
40707;SDS011;26392;42.696;23.350;2023-03-19T09:58:04;13.88;;;5.20;;
40707;SDS011;26392;42.696;23.350;2023-03-19T10:00:36;18.25;;;6.40;;
40707;SDS011;26392;42.696;23.350;2023-03-19T10:17:19;14.73;;;6.00;;
40707;SDS011;26392;42.696;23.350;2023-03-19T10:19:58;11.88;;;5.80;;
40707;SDS011;26392;42.696;23.350;2023-03-19T10:25:50;9.90;;;4.75;;
40707;SDS011;26392;42.696;23.350;2023-03-19T10:28:19;6.85;;;4.38;;
40707;SDS011;26392;42.696;23.350;2023-03-19T10:30:52;10.60;;;4.70;;
40707;SDS011;26392;42.696;23.350;2023-03-19T10:33:29;10.30;;;5.53;;
40707;SDS011;26392;42.696;23.350;2023-03-19T10:36:19;15.57;;;6.95;;
40707;SDS011;26392;42.696;23.350;2023-03-19T10:38:50;10.25;;;5.78;;
40707;SDS011;26392;42.696;23.350;2023-03-19T10:41:32;9.32;;;5.38;;
40707;SDS011;26392;42.696;23.350;2023-03-19T10:44:03;9.45;;;5.60;;
40707;SDS011;26392;42.696;23.350;2023-03-19T10:46:38;8.57;;;5.70;;
40707;SDS011;26392;42.696;23.350;2023-03-19T10:49:09;8.25;;;5.57;;
40707;SDS011;26392;42.696;23.350;2023-03-19T10:51:37;9.27;;;4.90;;
40707;SDS011;26392;42.696;23.350;2023-03-19T10:54:12;14.52;;;5.20;;
40707;SDS011;26392;42.696;23.350;2023-03-19T10:56:45;10.93;;;4.63;;
40707;SDS011;26392;42.696;23.350;2023-03-19T10:59:19;6.78;;;3.92;;
40707;SDS011;26392;42.696;23.350;2023-03-19T11:01:57;8.13;;;4.30;;
40707;SDS011;26392;42.696;23.350;2023-03-19T11:04:26;6.88;;;3.50;;
40707;SDS011;26392;42.696;23.350;2023-03-19T11:07:07;10.98;;;4.93;;
40707;SDS011;26392;42.696;23.350;2023-03-19T11:14:52;8.40;;;5.07;;
40707;SDS011;26392;42.696;23.350;2023-03-19T11:17:26;8.85;;;5.13;;
40707;SDS011;26392;42.696;23.350;2023-03-19T11:19:53;10.43;;;4.60;;
40707;SDS011;26392;42.696;23.350;2023-03-19T11:22:25;9.15;;;3.85;;
40707;SDS011;26392;42.696;23.350;2023-03-19T11:24:56;7.70;;;3.65;;
40707;SDS011;26392;42.696;23.350;2023-03-19T11:27:26;6.57;;;4.10;;
40707;SDS011;26392;42.696;23.350;2023-03-19T11:29:58;9.88;;;4.60;;
40707;SDS011;26392;42.696;23.350;2023-03-19T11:35:03;9.35;;;4.47;;
40707;SDS011;26392;42.696;23.350;2023-03-19T11:45:27;10.15;;;4.55;;
40707;SDS011;26392;42.696;23.350;2023-03-19T11:50:43;14.27;;;4.30;;
40707;SDS011;26392;42.696;23.350;2023-03-19T11:53:31;7.93;;;4.60;;
40707;SDS011;26392;42.696;23.350;2023-03-19T12:07:48;8.90;;;4.35;;
40707;SDS011;26392;42.696;23.350;2023-03-19T12:35:42;7.35;;;4.80;;
40707;SDS011;26392;42.696;23.350;2023-03-19T12:40:53;7.00;;;4.45;;
40707;SDS011;26392;42.696;23.350;2023-03-19T12:46:17;6.38;;;4.13;;
40707;SDS011;26392;42.696;23.350;2023-03-19T12:49:09;7.78;;;4.28;;
40707;SDS011;26392;42.696;23.350;2023-03-19T12:52:07;5.85;;;3.63;;
40707;SDS011;26392;42.696;23.350;2023-03-19T12:54:55;8.60;;;4.40;;
40707;SDS011;26392;42.696;23.350;2023-03-19T13:00:19;8.75;;;4.72;;
40707;SDS011;26392;42.696;23.350;2023-03-19T13:02:58;8.73;;;4.35;;
40707;SDS011;26392;42.696;23.350;2023-03-19T13:05:42;11.38;;;4.40;;
40707;SDS011;26392;42.696;23.350;2023-03-19T13:11:02;8.48;;;4.25;;
40707;SDS011;26392;42.696;23.350;2023-03-19T13:16:29;9.60;;;4.15;;
40707;SDS011;26392;42.696;23.350;2023-03-19T13:19:17;7.25;;;3.47;;
40707;SDS011;26392;42.696;23.350;2023-03-19T13:21:44;9.52;;;4.32;;
40707;SDS011;26392;42.696;23.350;2023-03-19T13:26:58;8.18;;;3.15;;
40707;SDS011;26392;42.696;23.350;2023-03-19T13:29:29;6.85;;;3.60;;
40707;SDS011;26392;42.696;23.350;2023-03-19T13:31:59;8.23;;;4.20;;
40707;SDS011;26392;42.696;23.350;2023-03-19T13:34:26;8.73;;;3.58;;
40707;SDS011;26392;42.696;23.350;2023-03-19T13:39:28;5.43;;;3.00;;
40707;SDS011;26392;42.696;23.350;2023-03-19T13:42:05;3.88;;;2.72;;
40707;SDS011;26392;42.696;23.350;2023-03-19T13:44:59;4.18;;;2.67;;
40707;SDS011;26392;42.696;23.350;2023-03-19T13:52:38;5.95;;;2.70;;
40707;SDS011;26392;42.696;23.350;2023-03-19T13:58:05;7.03;;;2.80;;
40707;SDS011;26392;42.696;23.350;2023-03-19T14:01:03;5.72;;;3.28;;
40707;SDS011;26392;42.696;23.350;2023-03-19T14:03:30;6.45;;;3.20;;
40707;SDS011;26392;42.696;23.350;2023-03-19T14:05:58;9.10;;;3.50;;
40707;SDS011;26392;42.696;23.350;2023-03-19T14:08:27;3.30;;;2.53;;
40707;SDS011;26392;42.696;23.350;2023-03-19T14:10:59;4.35;;;2.60;;
40707;SDS011;26392;42.696;23.350;2023-03-19T14:16:00;6.90;;;3.40;;
40707;SDS011;26392;42.696;23.350;2023-03-19T14:20:57;8.75;;;3.13;;
40707;SDS011;26392;42.696;23.350;2023-03-19T14:23:29;7.25;;;3.30;;
40707;SDS011;26392;42.696;23.350;2023-03-19T14:26:03;5.15;;;3.40;;
40707;SDS011;26392;42.696;23.350;2023-03-19T14:28:36;6.57;;;3.10;;
40707;SDS011;26392;42.696;23.350;2023-03-19T14:31:02;6.22;;;3.17;;
40707;SDS011;26392;42.696;23.350;2023-03-19T14:36:05;9.02;;;3.97;;
40707;SDS011;26392;42.696;23.350;2023-03-19T14:38:41;8.25;;;3.65;;
40707;SDS011;26392;42.696;23.350;2023-03-19T14:41:15;7.68;;;3.53;;
40707;SDS011;26392;42.696;23.350;2023-03-19T14:44:06;11.13;;;3.63;;
40707;SDS011;26392;42.696;23.350;2023-03-19T14:49:15;9.50;;;3.70;;
40707;SDS011;26392;42.696;23.350;2023-03-19T14:57:14;6.72;;;3.65;;
40707;SDS011;26392;42.696;23.350;2023-03-19T14:59:41;5.40;;;3.60;;
40707;SDS011;26392;42.696;23.350;2023-03-19T15:02:21;6.47;;;2.97;;
40707;SDS011;26392;42.696;23.350;2023-03-19T15:05:26;6.25;;;3.40;;
40707;SDS011;26392;42.696;23.350;2023-03-19T15:08:00;6.78;;;3.65;;
40707;SDS011;26392;42.696;23.350;2023-03-19T15:10:34;12.95;;;3.67;;
40707;SDS011;26392;42.696;23.350;2023-03-19T15:18:47;8.00;;;3.60;;
40707;SDS011;26392;42.696;23.350;2023-03-19T15:21:14;7.22;;;3.45;;
40707;SDS011;26392;42.696;23.350;2023-03-19T15:23:40;7.85;;;4.38;;
40707;SDS011;26392;42.696;23.350;2023-03-19T15:26:10;6.75;;;4.03;;
40707;SDS011;26392;42.696;23.350;2023-03-19T15:31:14;8.25;;;3.83;;
40707;SDS011;26392;42.696;23.350;2023-03-19T15:33:40;8.77;;;3.70;;
40707;SDS011;26392;42.696;23.350;2023-03-19T15:38:42;14.82;;;4.43;;
40707;SDS011;26392;42.696;23.350;2023-03-19T15:41:21;10.73;;;3.53;;
40707;SDS011;26392;42.696;23.350;2023-03-19T15:43:51;10.55;;;3.90;;
40707;SDS011;26392;42.696;23.350;2023-03-19T15:46:17;7.65;;;3.72;;
40707;SDS011;26392;42.696;23.350;2023-03-19T15:51:41;7.32;;;3.35;;
40707;SDS011;26392;42.696;23.350;2023-03-19T15:54:10;9.80;;;3.60;;
40707;SDS011;26392;42.696;23.350;2023-03-19T15:56:36;7.53;;;3.72;;
40707;SDS011;26392;42.696;23.350;2023-03-19T15:59:01;6.47;;;3.80;;
40707;SDS011;26392;42.696;23.350;2023-03-19T16:01:28;9.48;;;4.38;;
40707;SDS011;26392;42.696;23.350;2023-03-19T16:04:00;7.47;;;3.75;;
40707;SDS011;26392;42.696;23.350;2023-03-19T16:06:31;5.73;;;3.83;;
40707;SDS011;26392;42.696;23.350;2023-03-19T16:11:42;10.35;;;3.92;;
40707;SDS011;26392;42.696;23.350;2023-03-19T16:16:45;5.90;;;3.22;;
40707;SDS011;26392;42.696;23.350;2023-03-19T16:21:56;9.83;;;3.87;;
40707;SDS011;26392;42.696;23.350;2023-03-19T16:26:58;10.45;;;3.70;;
40707;SDS011;26392;42.696;23.350;2023-03-19T16:29:30;11.15;;;4.05;;
40707;SDS011;26392;42.696;23.350;2023-03-19T16:40:00;12.02;;;5.28;;
40707;SDS011;26392;42.696;23.350;2023-03-19T16:42:49;12.45;;;5.13;;
40707;SDS011;26392;42.696;23.350;2023-03-19T16:45:24;11.82;;;5.00;;
40707;SDS011;26392;42.696;23.350;2023-03-19T16:47:50;11.00;;;5.25;;
40707;SDS011;26392;42.696;23.350;2023-03-19T16:50:18;13.02;;;5.30;;
40707;SDS011;26392;42.696;23.350;2023-03-19T16:52:45;14.65;;;5.72;;
40707;SDS011;26392;42.696;23.350;2023-03-19T16:55:19;13.27;;;4.72;;
40707;SDS011;26392;42.696;23.350;2023-03-19T16:57:53;8.95;;;4.95;;
40707;SDS011;26392;42.696;23.350;2023-03-19T17:00:19;13.30;;;4.72;;